You are listening to:
KCUB CTAF - Columbia, South Carolina, United States

KCUB 042353Z AUTO 00000KT 10SM CLR 06/M03 A3055 RMK AO2 SLP344 T00561033 10089 20056 53004

If stream doesn't start automatically press the play button
If stream stops then reload player then press play